createdAt,value
2023-03-01T00:00:09.872Z,-0.30
2023-03-01T00:01:32.988Z,-0.40
2023-03-01T00:02:55.932Z,-0.40
2023-03-01T00:04:18.113Z,-0.40
2023-03-01T00:05:47.871Z,-0.40
2023-03-01T00:07:10.000Z,-0.40
2023-03-01T00:08:33.764Z,-0.40
2023-03-01T00:09:55.838Z,-0.40
2023-03-01T00:11:26.347Z,-0.40
2023-03-01T00:12:48.424Z,-0.40
2023-03-01T00:14:10.520Z,-0.40
2023-03-01T00:15:33.309Z,-0.40
2023-03-01T00:16:55.430Z,-0.40
2023-03-01T00:18:17.587Z,-0.40
2023-03-01T00:19:39.680Z,-0.40
2023-03-01T00:21:02.091Z,-0.40
2023-03-01T00:22:24.429Z,-0.40
2023-03-01T00:23:46.553Z,-0.40
2023-03-01T00:25:08.939Z,-0.40
2023-03-01T00:26:31.722Z,-0.40
2023-03-01T00:27:53.977Z,-0.50
2023-03-01T00:29:16.015Z,-0.50
2023-03-01T00:30:38.238Z,-0.50
2023-03-01T00:32:00.891Z,-0.50
2023-03-01T00:33:23.054Z,-0.50
2023-03-01T00:34:54.903Z,-0.50
2023-03-01T00:36:17.325Z,-0.50
2023-03-01T00:37:39.383Z,-0.50
2023-03-01T00:39:02.069Z,-0.50
2023-03-01T00:40:31.000Z,-0.50
2023-03-01T00:41:53.014Z,-0.50
2023-03-01T00:43:15.083Z,-0.50
2023-03-01T00:44:37.127Z,-0.50
2023-03-01T00:46:02.538Z,-0.50
2023-03-01T00:47:24.613Z,-0.50
2023-03-01T00:48:47.074Z,-0.60
2023-03-01T00:50:10.076Z,-0.60
2023-03-01T00:51:32.706Z,-0.60
2023-03-01T00:52:56.573Z,-0.60
2023-03-01T00:54:18.636Z,-0.60
2023-03-01T00:55:40.654Z,-0.60
2023-03-01T00:57:02.666Z,-0.60
2023-03-01T00:58:24.976Z,-0.60
2023-03-01T00:59:47.028Z,-0.60
2023-03-01T01:01:17.980Z,-0.70
2023-03-01T01:02:41.219Z,-0.70
2023-03-01T01:04:06.356Z,-0.70
2023-03-01T01:05:28.426Z,-0.70
2023-03-01T01:06:50.424Z,-0.70
2023-03-01T01:08:13.074Z,-0.70
2023-03-01T01:09:35.267Z,-0.70
2023-03-01T01:10:57.319Z,-0.70
2023-03-01T01:12:19.393Z,-0.70
2023-03-01T01:13:41.958Z,-0.70
2023-03-01T01:15:04.277Z,-0.70
2023-03-01T01:16:28.280Z,-0.70
2023-03-01T01:17:50.461Z,-0.70
2023-03-01T01:19:14.238Z,-0.70
2023-03-01T01:20:36.548Z,-0.70
2023-03-01T01:21:58.579Z,-0.70
2023-03-01T01:23:20.645Z,-0.70
2023-03-01T01:24:42.801Z,-0.80
2023-03-01T01:26:27.830Z,-0.80
2023-03-01T01:27:49.951Z,-0.80
2023-03-01T01:29:12.841Z,-0.80
2023-03-01T01:30:34.862Z,-0.80
2023-03-01T01:31:56.902Z,-0.80
2023-03-01T01:33:19.009Z,-0.80
2023-03-01T01:34:41.115Z,-0.80
2023-03-01T01:36:03.863Z,-0.80
2023-03-01T01:37:31.996Z,-0.80
2023-03-01T01:38:54.464Z,-0.80
2023-03-01T01:40:16.815Z,-0.80
2023-03-01T01:41:39.222Z,-0.80
2023-03-01T01:43:01.417Z,-0.80
2023-03-01T01:44:26.587Z,-0.80
2023-03-01T01:45:49.242Z,-0.80
2023-03-01T01:47:19.678Z,-0.80
2023-03-01T01:48:45.971Z,-0.80
2023-03-01T01:50:16.135Z,-0.80
2023-03-01T01:51:41.444Z,-0.80
2023-03-01T01:53:03.785Z,-0.80
2023-03-01T01:54:45.518Z,-0.80
2023-03-01T01:56:09.886Z,-0.80
2023-03-01T01:57:37.261Z,-0.80
2023-03-01T01:58:59.565Z,-0.80
2023-03-01T02:00:24.527Z,-0.80
2023-03-01T02:01:46.658Z,-0.80
2023-03-01T02:03:18.282Z,-0.80
2023-03-01T02:04:40.786Z,-0.70
2023-03-01T02:06:14.496Z,-0.70
2023-03-01T02:07:37.867Z,-0.70
2023-03-01T02:09:05.788Z,-0.70
2023-03-01T02:10:30.023Z,-0.70
2023-03-01T02:11:52.978Z,-0.70
2023-03-01T02:13:15.171Z,-0.70
2023-03-01T02:14:37.243Z,-0.70
2023-03-01T02:15:59.599Z,-0.70
2023-03-01T02:17:22.364Z,-0.70
2023-03-01T02:18:45.649Z,-0.70
2023-03-01T02:20:20.092Z,-0.70
2023-03-01T02:22:07.261Z,-0.70
2023-03-01T02:23:30.249Z,-0.80
2023-03-01T02:24:55.109Z,-0.80
2023-03-01T02:26:43.206Z,-0.80
2023-03-01T02:28:17.072Z,-0.80
2023-03-01T02:29:39.696Z,-0.80
2023-03-01T02:31:21.046Z,-0.90
2023-03-01T02:32:43.491Z,-0.90
2023-03-01T02:34:07.515Z,-0.90
2023-03-01T02:35:39.204Z,-0.80
2023-03-01T02:37:15.776Z,-0.90
2023-03-01T02:38:37.841Z,-0.90
2023-03-01T02:40:03.833Z,-0.90
2023-03-01T02:41:29.320Z,-0.90
2023-03-01T02:42:56.558Z,-0.90
2023-03-01T02:44:18.996Z,-0.90
2023-03-01T02:45:50.512Z,-0.90
2023-03-01T02:47:12.536Z,-0.90
2023-03-01T02:48:43.178Z,-0.90
2023-03-01T02:50:34.828Z,-0.80
2023-03-01T02:52:03.481Z,-0.80
2023-03-01T02:54:07.036Z,-0.80
2023-03-01T02:55:29.264Z,-0.80
2023-03-01T02:56:51.814Z,-0.80
2023-03-01T02:58:13.942Z,-0.90
2023-03-01T02:59:40.360Z,-0.90
2023-03-01T03:01:02.496Z,-0.90
2023-03-01T03:02:39.694Z,-0.90
2023-03-01T03:04:01.799Z,-0.80
2023-03-01T03:05:27.478Z,-0.80
2023-03-01T03:06:51.503Z,-0.80
2023-03-01T03:08:13.594Z,-0.80
2023-03-01T03:09:35.690Z,-0.80
2023-03-01T03:10:57.722Z,-0.80
2023-03-01T03:12:20.020Z,-0.80
2023-03-01T03:13:48.983Z,-0.80
2023-03-01T03:15:13.537Z,-0.80
2023-03-01T03:16:35.646Z,-0.80
2023-03-01T03:17:59.515Z,-0.80
2023-03-01T03:19:21.727Z,-0.80
2023-03-01T03:20:44.858Z,-0.80
2023-03-01T03:22:06.864Z,-0.80
2023-03-01T03:23:30.399Z,-0.80
2023-03-01T03:24:52.418Z,-0.80
2023-03-01T03:26:15.928Z,-0.80
2023-03-01T03:27:39.253Z,-0.80
2023-03-01T03:29:01.424Z,-0.80
2023-03-01T03:30:26.178Z,-0.80
2023-03-01T03:31:48.353Z,-0.80
2023-03-01T03:33:14.886Z,-0.90
2023-03-01T03:34:36.912Z,-0.90
2023-03-01T03:35:59.140Z,-0.90
2023-03-01T03:37:39.975Z,-0.90
2023-03-01T03:39:02.011Z,-0.90
2023-03-01T03:40:24.024Z,-0.90
2023-03-01T03:41:46.068Z,-0.90
2023-03-01T03:43:11.450Z,-1.00
2023-03-01T03:44:33.472Z,-0.90
2023-03-01T03:45:58.036Z,-0.90
2023-03-01T03:47:20.234Z,-1.00
2023-03-01T03:48:45.115Z,-1.00
2023-03-01T03:50:07.531Z,-1.00
2023-03-01T03:51:29.538Z,-1.00
2023-03-01T03:52:51.611Z,-1.00
2023-03-01T03:54:13.668Z,-1.00
2023-03-01T03:55:40.001Z,-1.00
2023-03-01T03:57:02.043Z,-1.00
2023-03-01T03:58:25.426Z,-1.00
2023-03-01T03:59:47.494Z,-1.00
2023-03-01T04:01:09.590Z,-1.00
2023-03-01T04:02:31.850Z,-1.00
2023-03-01T04:03:55.385Z,-1.10
2023-03-01T04:05:19.728Z,-1.10
2023-03-01T04:06:41.773Z,-1.00
2023-03-01T04:08:04.530Z,-1.00
2023-03-01T04:09:26.578Z,-1.00
2023-03-01T04:10:51.620Z,-1.00
2023-03-01T04:12:13.689Z,-1.00
2023-03-01T04:13:35.718Z,-1.00
2023-03-01T04:14:57.786Z,-1.00
2023-03-01T04:16:20.316Z,-1.00
2023-03-01T04:17:47.554Z,-1.10
2023-03-01T04:19:10.527Z,-1.10
2023-03-01T04:20:35.741Z,-1.10
2023-03-01T04:21:57.802Z,-1.10
2023-03-01T04:23:21.621Z,-1.10
2023-03-01T04:24:44.435Z,-1.10
2023-03-01T04:26:06.476Z,-1.10
2023-03-01T04:27:28.719Z,-1.10
2023-03-01T04:28:51.582Z,-1.10
2023-03-01T04:30:14.068Z,-1.10
2023-03-01T04:31:36.378Z,-1.10
2023-03-01T04:32:58.443Z,-1.10
2023-03-01T04:34:20.680Z,-1.10
2023-03-01T04:35:42.776Z,-1.20
2023-03-01T04:37:04.831Z,-1.20
2023-03-01T04:38:26.872Z,-1.20
2023-03-01T04:39:48.972Z,-1.20
2023-03-01T04:41:12.094Z,-1.20
2023-03-01T04:42:34.162Z,-1.20
2023-03-01T04:43:56.237Z,-1.20
2023-03-01T04:45:18.449Z,-1.20
2023-03-01T04:46:40.472Z,-1.20
2023-03-01T04:48:02.781Z,-1.20
2023-03-01T04:49:24.934Z,-1.20
2023-03-01T04:50:47.022Z,-1.20
2023-03-01T04:52:10.197Z,-1.30
2023-03-01T04:53:33.395Z,-1.30
2023-03-01T04:54:55.473Z,-1.30
2023-03-01T04:56:20.883Z,-1.30
2023-03-01T04:57:43.150Z,-1.30
2023-03-01T04:59:06.652Z,-1.30
2023-03-01T05:00:28.740Z,-1.30
2023-03-01T05:01:51.779Z,-1.30
2023-03-01T05:03:19.043Z,-1.30
2023-03-01T05:04:41.204Z,-1.30
2023-03-01T05:06:03.317Z,-1.30
2023-03-01T05:07:25.847Z,-1.30
2023-03-01T05:08:47.998Z,-1.30
2023-03-01T05:10:10.663Z,-1.30
2023-03-01T05:11:36.657Z,-1.30
2023-03-01T05:12:59.784Z,-1.30
2023-03-01T05:14:22.735Z,-1.30
2023-03-01T05:15:44.794Z,-1.30
2023-03-01T05:17:07.616Z,-1.30
2023-03-01T05:18:31.685Z,-1.30
2023-03-01T05:19:55.982Z,-1.30
2023-03-01T05:21:18.173Z,-1.30
2023-03-01T05:22:40.267Z,-1.30
2023-03-01T05:24:02.954Z,-1.30
2023-03-01T05:25:25.393Z,-1.30
2023-03-01T05:26:49.182Z,-1.30
2023-03-01T05:28:12.724Z,-1.30
2023-03-01T05:29:35.958Z,-1.20
2023-03-01T05:30:59.067Z,-1.20
2023-03-01T05:32:21.745Z,-1.20
2023-03-01T05:33:44.397Z,-1.20
2023-03-01T05:35:06.915Z,-1.20
2023-03-01T05:36:29.451Z,-1.20
2023-03-01T05:37:52.334Z,-1.20
2023-03-01T05:39:14.389Z,-1.20
2023-03-01T05:40:36.760Z,-1.30
2023-03-01T05:42:02.016Z,-1.30
2023-03-01T05:43:24.033Z,-1.30
2023-03-01T05:44:46.230Z,-1.30
2023-03-01T05:46:12.148Z,-1.30
2023-03-01T05:47:34.275Z,-1.30
2023-03-01T05:48:57.342Z,-1.20
2023-03-01T05:50:22.859Z,-1.20
2023-03-01T05:51:49.786Z,-1.20
2023-03-01T05:53:15.730Z,-1.20
2023-03-01T05:54:38.035Z,-1.20
2023-03-01T05:56:00.090Z,-1.20
2023-03-01T05:57:22.094Z,-1.20
2023-03-01T05:58:44.141Z,-1.20
2023-03-01T06:00:07.312Z,-1.20
2023-03-01T06:01:30.194Z,-1.20
2023-03-01T06:02:55.090Z,-1.20
2023-03-01T06:04:17.137Z,-1.20
2023-03-01T06:05:40.476Z,-1.20
2023-03-01T06:07:02.590Z,-1.20
2023-03-01T06:08:25.551Z,-1.20
2023-03-01T06:09:47.568Z,-1.20
2023-03-01T06:11:10.389Z,-1.10
2023-03-01T06:12:37.101Z,-1.10
2023-03-01T06:13:59.096Z,-1.10
2023-03-01T06:15:21.731Z,-1.00
2023-03-01T06:16:43.764Z,-1.00
2023-03-01T06:18:05.795Z,-1.00
2023-03-01T06:19:27.938Z,-1.00
2023-03-01T06:20:58.799Z,-0.90
2023-03-01T06:22:20.823Z,-0.90
2023-03-01T06:23:42.840Z,-0.90
2023-03-01T06:25:05.906Z,-0.80
2023-03-01T06:26:27.955Z,-0.80
2023-03-01T06:27:50.399Z,-0.80
2023-03-01T06:29:12.536Z,-0.70
2023-03-01T06:30:34.592Z,-0.70
2023-03-01T06:31:56.635Z,-0.70
2023-03-01T06:33:21.028Z,-0.70
2023-03-01T06:34:43.084Z,-0.60
2023-03-01T06:36:05.441Z,-0.60
2023-03-01T06:37:27.544Z,-0.60
2023-03-01T06:38:49.594Z,-0.50
2023-03-01T06:40:12.846Z,-0.50
2023-03-01T06:41:34.912Z,-0.50
2023-03-01T06:42:56.961Z,-0.40
2023-03-01T06:44:18.987Z,-0.40
2023-03-01T06:45:41.020Z,-0.30
2023-03-01T06:47:04.204Z,-0.30
2023-03-01T06:48:26.277Z,-0.30
2023-03-01T06:49:48.300Z,-0.20
2023-03-01T06:51:10.409Z,-0.20
2023-03-01T06:52:32.673Z,-0.10
2023-03-01T06:53:54.688Z,0.00
2023-03-01T06:55:16.811Z,0.00
2023-03-01T06:56:39.194Z,0.00
2023-03-01T06:58:02.813Z,0.10
2023-03-01T06:59:24.843Z,0.10
2023-03-01T07:00:46.890Z,0.10
2023-03-01T07:02:12.638Z,0.20
2023-03-01T07:03:34.762Z,0.20
2023-03-01T07:04:56.798Z,0.30
2023-03-01T07:06:18.922Z,0.30
2023-03-01T07:07:41.029Z,0.40
2023-03-01T07:09:03.415Z,0.40
2023-03-01T07:10:25.586Z,0.50
2023-03-01T07:11:47.930Z,0.50
2023-03-01T07:13:10.025Z,0.60
2023-03-01T07:14:32.069Z,0.60
2023-03-01T07:15:54.204Z,0.60
2023-03-01T07:17:16.396Z,0.60
2023-03-01T07:18:38.463Z,0.70
2023-03-01T07:20:00.469Z,0.70
2023-03-01T07:21:22.530Z,0.80
2023-03-01T07:22:44.640Z,0.90
2023-03-01T07:24:08.350Z,0.90
2023-03-01T07:25:30.428Z,1.00
2023-03-01T07:26:54.363Z,1.00
2023-03-01T07:28:16.379Z,1.00
2023-03-01T07:29:38.668Z,1.10
2023-03-01T07:31:04.251Z,1.20
2023-03-01T07:32:26.382Z,1.30
2023-03-01T07:33:48.467Z,1.30
2023-03-01T07:35:10.571Z,1.40
2023-03-01T07:36:32.940Z,1.40
2023-03-01T07:37:55.216Z,1.40
2023-03-01T07:39:18.726Z,1.50
2023-03-01T07:40:41.779Z,1.50
2023-03-01T07:42:03.930Z,1.50
2023-03-01T07:43:25.994Z,1.50
2023-03-01T07:44:48.064Z,1.60
2023-03-01T07:46:10.647Z,1.60
2023-03-01T07:47:33.212Z,1.70
2023-03-01T07:48:55.314Z,1.70
2023-03-01T07:50:17.578Z,1.80
2023-03-01T07:51:39.731Z,2.00
2023-03-01T07:53:01.788Z,2.00
2023-03-01T07:54:24.094Z,2.00
2023-03-01T07:55:46.145Z,2.10
2023-03-01T07:57:08.155Z,2.20
2023-03-01T07:58:30.278Z,2.20
2023-03-01T07:59:52.355Z,2.20
2023-03-01T08:01:17.330Z,2.20
2023-03-01T08:02:41.334Z,2.20
2023-03-01T08:04:03.450Z,2.20
2023-03-01T08:05:25.560Z,2.20
2023-03-01T08:06:47.672Z,2.20
2023-03-01T08:08:09.695Z,2.20
2023-03-01T08:09:31.861Z,2.20
2023-03-01T08:10:57.219Z,2.30
2023-03-01T08:12:19.574Z,2.40
2023-03-01T08:13:42.387Z,2.50
2023-03-01T08:15:05.052Z,2.70
2023-03-01T08:16:27.138Z,2.80
2023-03-01T08:17:50.701Z,2.90
2023-03-01T08:19:16.483Z,3.00
2023-03-01T08:20:38.594Z,3.20
2023-03-01T08:22:00.842Z,3.30
2023-03-01T08:23:23.012Z,3.30
2023-03-01T08:24:45.197Z,3.40
2023-03-01T08:26:13.056Z,3.40
2023-03-01T08:27:35.161Z,3.40
2023-03-01T08:28:57.315Z,3.50
2023-03-01T08:30:19.538Z,3.50
2023-03-01T08:31:42.045Z,3.60
2023-03-01T08:33:04.246Z,3.70
2023-03-01T08:34:26.876Z,3.80
2023-03-01T08:35:49.023Z,3.80
2023-03-01T08:37:11.232Z,3.80
2023-03-01T08:38:34.442Z,3.70
2023-03-01T08:39:56.555Z,3.70
2023-03-01T08:41:19.281Z,3.50
2023-03-01T08:42:45.889Z,3.50
2023-03-01T08:44:08.503Z,3.50
2023-03-01T08:45:30.642Z,3.60
2023-03-01T08:46:54.138Z,3.60
2023-03-01T08:48:16.183Z,3.60
2023-03-01T08:49:38.290Z,3.70
2023-03-01T08:51:16.170Z,3.70
2023-03-01T08:52:38.287Z,3.70
2023-03-01T08:54:00.436Z,3.60
2023-03-01T08:55:22.542Z,3.50
2023-03-01T08:56:45.557Z,3.40
2023-03-01T08:58:07.631Z,3.40
2023-03-01T08:59:30.834Z,3.40
2023-03-01T09:00:52.884Z,3.50
2023-03-01T09:02:19.978Z,3.50
2023-03-01T09:03:42.167Z,3.60
2023-03-01T09:05:04.420Z,3.60
2023-03-01T09:06:26.587Z,3.60
2023-03-01T09:07:48.643Z,3.60
2023-03-01T09:09:17.414Z,3.70
2023-03-01T09:10:40.463Z,3.80
2023-03-01T09:12:02.776Z,3.90
2023-03-01T09:13:25.806Z,4.00
2023-03-01T09:14:47.957Z,4.00
2023-03-01T09:16:12.103Z,4.00
2023-03-01T09:17:34.190Z,4.10
2023-03-01T09:18:56.645Z,4.20
2023-03-01T09:20:18.742Z,4.30
2023-03-01T09:21:41.550Z,4.40
2023-03-01T09:23:03.692Z,4.50
2023-03-01T09:24:25.960Z,4.70
2023-03-01T09:25:48.150Z,4.70
2023-03-01T09:27:10.690Z,4.90
2023-03-01T09:28:32.906Z,5.00
2023-03-01T09:29:57.401Z,5.10
2023-03-01T09:31:21.771Z,5.20
2023-03-01T09:32:45.708Z,5.30
2023-03-01T09:34:08.606Z,5.30
2023-03-01T09:35:31.054Z,5.50
2023-03-01T09:36:53.539Z,5.60
2023-03-01T09:38:15.681Z,5.80
2023-03-01T09:39:37.971Z,5.90
2023-03-01T09:41:01.538Z,5.90
2023-03-01T09:42:23.701Z,5.90
2023-03-01T09:43:56.513Z,6.00
2023-03-01T09:45:43.436Z,5.90
2023-03-01T09:47:06.351Z,6.10
2023-03-01T09:48:34.209Z,6.20
2023-03-01T09:50:17.948Z,6.40
2023-03-01T09:51:40.239Z,6.50
2023-03-01T09:53:16.780Z,6.50
2023-03-01T09:54:39.031Z,6.50
2023-03-01T09:56:14.630Z,6.40
2023-03-01T09:57:44.331Z,6.30
2023-03-01T09:59:15.564Z,6.30
2023-03-01T10:00:43.493Z,6.30
2023-03-01T10:02:37.456Z,6.30
2023-03-01T10:04:29.767Z,6.30
2023-03-01T10:06:05.788Z,6.50
2023-03-01T10:07:41.759Z,6.60
2023-03-01T10:09:22.448Z,6.50
2023-03-01T10:10:47.168Z,6.60
2023-03-01T10:14:02.461Z,6.80
2023-03-01T10:15:40.362Z,6.90
2023-03-01T10:17:27.918Z,7.00
2023-03-01T10:18:59.360Z,7.10
2023-03-01T10:20:28.209Z,7.30
2023-03-01T10:21:51.818Z,7.50
2023-03-01T10:23:13.939Z,7.60
2023-03-01T10:24:37.210Z,7.40
2023-03-01T10:26:10.321Z,7.20
2023-03-01T10:27:38.473Z,7.10
2023-03-01T10:29:12.242Z,6.90
2023-03-01T10:30:40.322Z,6.80
2023-03-01T10:32:05.787Z,6.70
2023-03-01T10:33:32.184Z,6.70
2023-03-01T10:34:54.310Z,6.70
2023-03-01T10:36:16.372Z,6.80
2023-03-01T10:38:04.054Z,6.90
2023-03-01T10:39:27.596Z,7.10
2023-03-01T10:40:55.444Z,7.30
2023-03-01T10:42:33.367Z,7.50
2023-03-01T10:43:57.906Z,7.80
2023-03-01T10:45:40.249Z,7.90
2023-03-01T10:47:02.583Z,8.10
2023-03-01T10:48:29.252Z,8.20
2023-03-01T10:50:06.639Z,8.30
2023-03-01T10:51:28.892Z,8.30
2023-03-01T10:52:59.849Z,8.50
2023-03-01T10:54:33.538Z,8.60
2023-03-01T10:56:02.523Z,8.70
2023-03-01T10:57:33.632Z,8.80
2023-03-01T10:59:00.426Z,8.80
2023-03-01T11:00:27.175Z,8.60
2023-03-01T11:02:26.206Z,8.50
2023-03-01T11:04:07.075Z,8.30
2023-03-01T11:05:31.304Z,8.40
2023-03-01T11:07:00.453Z,8.50
2023-03-01T11:08:50.108Z,8.70
2023-03-01T11:10:26.608Z,8.70
2023-03-01T11:11:56.973Z,8.70
2023-03-01T11:13:20.628Z,8.90
2023-03-01T11:14:54.331Z,9.10
2023-03-01T11:16:28.288Z,9.20
2023-03-01T11:17:56.961Z,9.20
2023-03-01T11:19:22.584Z,9.00
2023-03-01T11:20:44.887Z,8.80
2023-03-01T11:22:14.088Z,8.80
2023-03-01T11:23:40.601Z,8.70
2023-03-01T11:25:10.377Z,8.70
2023-03-01T11:26:37.222Z,8.80
2023-03-01T11:28:00.580Z,8.80
2023-03-01T11:29:29.680Z,9.00
2023-03-01T11:31:07.589Z,9.10
2023-03-01T11:32:39.725Z,9.10
2023-03-01T11:34:13.522Z,9.20
2023-03-01T11:35:43.200Z,9.30
2023-03-01T11:37:30.387Z,9.30
2023-03-01T11:38:54.795Z,9.40
2023-03-01T11:40:26.086Z,9.40
2023-03-01T11:41:54.040Z,9.30
2023-03-01T11:43:16.083Z,9.30
2023-03-01T11:44:41.269Z,9.30
2023-03-01T11:46:34.484Z,9.40
2023-03-01T11:48:06.386Z,9.40
2023-03-01T11:49:37.126Z,9.40
2023-03-01T11:51:06.519Z,9.60
2023-03-01T11:52:50.479Z,9.70
2023-03-01T11:54:35.559Z,9.80
2023-03-01T11:56:33.773Z,9.70
2023-03-01T11:58:42.135Z,9.70
2023-03-01T12:00:18.422Z,9.70
2023-03-01T12:02:19.288Z,9.70
2023-03-01T12:04:14.795Z,9.70
2023-03-01T12:06:04.745Z,9.70
2023-03-01T12:07:32.849Z,9.60
2023-03-01T12:09:15.497Z,9.40
2023-03-01T12:10:48.704Z,9.40
2023-03-01T12:12:29.773Z,9.50
2023-03-01T12:14:06.426Z,9.60
2023-03-01T12:15:53.005Z,9.60
2023-03-01T12:17:45.630Z,9.60
2023-03-01T12:19:44.116Z,9.60
2023-03-01T12:21:20.774Z,9.70
2023-03-01T12:23:19.743Z,9.70
2023-03-01T12:25:07.101Z,9.80
2023-03-01T12:26:42.809Z,9.60
2023-03-01T12:28:13.745Z,9.50
2023-03-01T12:29:43.341Z,9.50
2023-03-01T12:31:11.665Z,9.70
2023-03-01T12:32:58.816Z,9.80
2023-03-01T12:34:50.571Z,9.80
2023-03-01T12:36:33.222Z,9.70
2023-03-01T12:38:12.336Z,9.70
2023-03-01T12:39:55.890Z,9.80
2023-03-01T12:41:38.795Z,9.80
2023-03-01T12:43:19.653Z,9.80
2023-03-01T12:45:14.137Z,9.80
2023-03-01T12:47:00.814Z,9.90
2023-03-01T12:48:52.215Z,10.10
2023-03-01T12:50:22.403Z,10.00
2023-03-01T12:51:56.828Z,9.80
2023-03-01T12:53:27.071Z,9.60
2023-03-01T12:54:52.795Z,9.60
2023-03-01T12:56:27.515Z,9.50
2023-03-01T12:58:19.409Z,9.40
2023-03-01T13:00:10.648Z,9.60
2023-03-01T13:01:36.439Z,9.50
2023-03-01T13:03:08.019Z,9.60
2023-03-01T13:04:30.166Z,9.80
2023-03-01T13:06:43.336Z,9.80
2023-03-01T13:08:20.461Z,9.60
2023-03-01T13:09:55.424Z,9.50
2023-03-01T13:11:21.669Z,9.60
2023-03-01T13:12:49.356Z,9.60
2023-03-01T13:14:26.446Z,9.50
2023-03-01T13:15:49.722Z,9.40
2023-03-01T13:17:32.590Z,9.50
2023-03-01T13:19:09.393Z,9.50
2023-03-01T13:20:51.848Z,9.50
2023-03-01T13:22:35.500Z,9.50
2023-03-01T13:23:58.684Z,9.60
2023-03-01T13:25:21.478Z,9.50
2023-03-01T13:27:16.037Z,9.30
2023-03-01T13:28:51.074Z,9.40
2023-03-01T13:30:34.742Z,9.60
2023-03-01T13:31:58.160Z,9.50
2023-03-01T13:33:29.233Z,9.50
2023-03-01T13:34:53.854Z,9.40
2023-03-01T13:36:32.571Z,9.40
2023-03-01T13:38:33.320Z,9.40
2023-03-01T13:39:55.411Z,9.20
2023-03-01T13:41:38.889Z,9.20
2023-03-01T13:43:28.414Z,9.20
2023-03-01T13:44:50.564Z,9.10
2023-03-01T13:46:22.771Z,9.10
2023-03-01T13:47:48.117Z,9.10
2023-03-01T13:49:15.236Z,9.10
2023-03-01T13:51:04.441Z,9.10
2023-03-01T13:52:45.351Z,9.10
2023-03-01T13:54:13.386Z,9.20
2023-03-01T13:55:43.404Z,9.20
2023-03-01T13:57:05.607Z,9.20
2023-03-01T13:58:27.628Z,9.20
2023-03-01T13:59:49.683Z,9.20
2023-03-01T14:01:33.096Z,9.20
2023-03-01T14:03:06.147Z,9.10
2023-03-01T14:04:32.449Z,8.90
2023-03-01T14:06:15.650Z,8.80
2023-03-01T14:07:42.274Z,8.60
2023-03-01T14:09:27.047Z,8.50
2023-03-01T14:11:14.981Z,8.50
2023-03-01T14:13:08.316Z,8.50
2023-03-01T14:14:51.667Z,8.60
2023-03-01T14:16:33.727Z,8.70
2023-03-01T14:17:58.791Z,8.70
2023-03-01T14:19:34.584Z,8.60
2023-03-01T14:20:56.819Z,8.60
2023-03-01T14:22:35.239Z,8.50
2023-03-01T14:23:58.842Z,8.30
2023-03-01T14:25:27.064Z,8.20
2023-03-01T14:26:50.984Z,8.20
2023-03-01T14:28:20.556Z,8.20
2023-03-01T14:29:42.644Z,8.10
2023-03-01T14:31:26.074Z,8.00
2023-03-01T14:32:55.152Z,7.90
2023-03-01T14:34:26.031Z,7.80
2023-03-01T14:36:00.213Z,7.80
2023-03-01T14:37:34.505Z,7.80
2023-03-01T14:38:59.324Z,7.80
2023-03-01T14:40:30.245Z,7.70
2023-03-01T14:41:53.209Z,7.70
2023-03-01T14:43:21.358Z,7.60
2023-03-01T14:44:45.858Z,7.40
2023-03-01T14:46:17.679Z,7.40
2023-03-01T14:47:41.208Z,7.40
2023-03-01T14:49:26.896Z,7.40
2023-03-01T14:50:51.103Z,7.30
2023-03-01T14:52:23.051Z,7.30
2023-03-01T14:53:51.040Z,7.30
2023-03-01T14:55:20.974Z,7.20
2023-03-01T14:56:48.315Z,7.20
2023-03-01T14:58:16.488Z,7.10
2023-03-01T14:59:38.508Z,7.10
2023-03-01T15:01:04.063Z,7.10
2023-03-01T15:02:28.946Z,7.10
2023-03-01T15:03:52.186Z,7.10
2023-03-01T15:05:16.666Z,7.00
2023-03-01T15:06:39.668Z,7.00
2023-03-01T15:08:04.580Z,7.00
2023-03-01T15:09:26.849Z,7.00
2023-03-01T15:11:23.760Z,6.90
2023-03-01T15:12:45.932Z,6.90
2023-03-01T15:14:28.253Z,6.80
2023-03-01T15:16:02.168Z,6.80
2023-03-01T15:17:35.337Z,6.80
2023-03-01T15:18:59.079Z,6.70
2023-03-01T15:20:26.758Z,6.70
2023-03-01T15:21:50.907Z,6.70
2023-03-01T15:23:28.444Z,6.70
2023-03-01T15:24:51.345Z,6.70
2023-03-01T15:26:24.249Z,6.70
2023-03-01T15:27:47.853Z,6.70
2023-03-01T15:29:18.885Z,6.70
2023-03-01T15:30:40.956Z,6.60
2023-03-01T15:32:25.916Z,6.50
2023-03-01T15:33:48.564Z,6.50
2023-03-01T15:35:49.180Z,6.50
2023-03-01T15:37:45.733Z,6.50
2023-03-01T15:39:38.104Z,6.50
2023-03-01T15:41:06.098Z,6.40
2023-03-01T15:42:28.074Z,6.30
2023-03-01T15:43:51.446Z,6.30
2023-03-01T15:45:21.575Z,6.30
2023-03-01T15:46:48.015Z,6.30
2023-03-01T15:48:21.017Z,6.30
2023-03-01T15:49:54.811Z,6.30
2023-03-01T15:51:17.662Z,6.30
2023-03-01T15:52:43.720Z,6.30
2023-03-01T15:54:17.467Z,6.30
2023-03-01T15:55:39.505Z,6.30
2023-03-01T15:57:01.603Z,6.20
2023-03-01T15:58:25.351Z,6.20
2023-03-01T15:59:47.823Z,6.20
2023-03-01T16:01:17.860Z,6.10
2023-03-01T16:02:41.666Z,6.10
2023-03-01T16:04:03.853Z,6.10
2023-03-01T16:05:31.468Z,6.10
2023-03-01T16:06:57.364Z,6.00
2023-03-01T16:08:20.079Z,6.00
2023-03-01T16:09:42.829Z,6.00
2023-03-01T16:11:10.688Z,5.90
2023-03-01T16:12:32.829Z,5.90
2023-03-01T16:13:55.078Z,5.90
2023-03-01T16:15:25.921Z,5.90
2023-03-01T16:16:49.021Z,5.80
2023-03-01T16:18:12.501Z,5.80
2023-03-01T16:19:35.763Z,5.80
2023-03-01T16:20:57.808Z,5.70
2023-03-01T16:22:25.650Z,5.70
2023-03-01T16:23:47.876Z,5.70
2023-03-01T16:25:14.875Z,5.60
2023-03-01T16:26:38.639Z,5.60
2023-03-01T16:28:05.748Z,5.50
2023-03-01T16:29:30.064Z,5.50
2023-03-01T16:30:52.381Z,5.50
2023-03-01T16:32:14.705Z,5.50
2023-03-01T16:33:37.662Z,5.40
2023-03-01T16:34:59.870Z,5.40
2023-03-01T16:36:24.678Z,5.30
2023-03-01T16:37:47.430Z,5.30
2023-03-01T16:39:10.446Z,5.20
2023-03-01T16:40:32.545Z,5.20
2023-03-01T16:41:54.651Z,5.20
2023-03-01T16:43:16.811Z,5.20
2023-03-01T16:44:39.006Z,5.10
2023-03-01T16:46:01.156Z,5.00
2023-03-01T16:47:23.743Z,5.00
2023-03-01T16:48:47.101Z,5.00
2023-03-01T16:50:10.090Z,5.00
2023-03-01T16:51:32.664Z,4.90
2023-03-01T16:52:54.922Z,4.90
2023-03-01T16:54:16.958Z,4.90
2023-03-01T16:55:46.181Z,4.90
2023-03-01T16:57:08.337Z,4.80
2023-03-01T16:58:30.485Z,4.80
2023-03-01T16:59:54.553Z,4.80
2023-03-01T17:01:19.852Z,4.70
2023-03-01T17:02:42.852Z,4.70
2023-03-01T17:04:05.152Z,4.70
2023-03-01T17:05:27.207Z,4.70
2023-03-01T17:06:49.520Z,4.70
2023-03-01T17:08:11.579Z,4.60
2023-03-01T17:09:38.109Z,4.60
2023-03-01T17:11:14.029Z,4.50
2023-03-01T17:12:36.458Z,4.50
2023-03-01T17:13:58.517Z,4.50
2023-03-01T17:15:20.607Z,4.40
2023-03-01T17:16:43.291Z,4.40
2023-03-01T17:18:05.729Z,4.40
2023-03-01T17:19:28.580Z,4.30
2023-03-01T17:20:50.647Z,4.30
2023-03-01T17:22:14.009Z,4.30
2023-03-01T17:23:37.780Z,4.30
2023-03-01T17:24:59.872Z,4.30
2023-03-01T17:26:21.974Z,4.30
2023-03-01T17:27:44.073Z,4.30
2023-03-01T17:29:06.793Z,4.30
2023-03-01T17:30:28.971Z,4.20
2023-03-01T17:31:51.301Z,4.20
2023-03-01T17:33:14.297Z,4.20
2023-03-01T17:34:37.682Z,4.20
2023-03-01T17:36:00.679Z,4.10
2023-03-01T17:37:23.176Z,4.10
2023-03-01T17:38:46.284Z,4.10
2023-03-01T17:40:09.110Z,4.00
2023-03-01T17:41:31.467Z,4.00
2023-03-01T17:42:53.832Z,3.90
2023-03-01T17:44:16.111Z,3.90
2023-03-01T17:45:39.593Z,3.90
2023-03-01T17:47:03.246Z,3.90
2023-03-01T17:48:25.914Z,3.80
2023-03-01T17:49:48.110Z,3.80
2023-03-01T17:51:11.899Z,3.80
2023-03-01T17:52:34.119Z,3.80
2023-03-01T17:53:56.177Z,3.70
2023-03-01T17:55:18.323Z,3.70
2023-03-01T17:56:42.202Z,3.70
2023-03-01T17:58:06.151Z,3.70
2023-03-01T17:59:31.256Z,3.70
2023-03-01T18:00:53.348Z,3.70
2023-03-01T18:02:15.528Z,3.70
2023-03-01T18:03:37.939Z,3.70
2023-03-01T18:05:00.127Z,3.70
2023-03-01T18:06:27.890Z,3.70
2023-03-01T18:07:52.054Z,3.70
2023-03-01T18:09:14.700Z,3.70
2023-03-01T18:10:37.512Z,3.70
2023-03-01T18:11:59.590Z,3.60
2023-03-01T18:13:21.698Z,3.70
2023-03-01T18:14:43.819Z,3.60
2023-03-01T18:16:07.797Z,3.60
2023-03-01T18:17:29.834Z,3.60
2023-03-01T18:18:56.336Z,3.60
2023-03-01T18:20:19.319Z,3.60
2023-03-01T18:21:41.533Z,3.60
2023-03-01T18:23:03.670Z,3.50
2023-03-01T18:24:25.934Z,3.50
2023-03-01T18:25:48.358Z,3.50
2023-03-01T18:27:10.622Z,3.50
2023-03-01T18:28:33.654Z,3.50
2023-03-01T18:29:56.395Z,3.50
2023-03-01T18:31:22.280Z,3.50
2023-03-01T18:32:45.112Z,3.50
2023-03-01T18:34:07.211Z,3.40
2023-03-01T18:35:31.455Z,3.40
2023-03-01T18:37:08.812Z,3.30
2023-03-01T18:38:31.530Z,3.30
2023-03-01T18:39:54.424Z,3.20
2023-03-01T18:41:16.875Z,3.20
2023-03-01T18:42:38.935Z,3.20
2023-03-01T18:44:02.237Z,3.20
2023-03-01T18:45:24.394Z,3.10
2023-03-01T18:46:46.572Z,3.10
2023-03-01T18:48:08.786Z,3.10
2023-03-01T18:49:30.924Z,3.10
2023-03-01T18:50:53.157Z,3.10
2023-03-01T18:52:15.326Z,3.00
2023-03-01T18:53:37.601Z,3.00
2023-03-01T18:54:59.867Z,2.90
2023-03-01T18:56:22.010Z,2.90
2023-03-01T18:57:44.238Z,2.90
2023-03-01T18:59:06.509Z,2.90
2023-03-01T19:00:28.566Z,2.90
2023-03-01T19:01:51.347Z,2.90